Hemingford, NE (69348)

10:43 AM MDT on April 27, 2017 (GMT -0600)
Panhandle Coop-Alliance | | Change Station
Active Advisory: Winter Weather Advisory

Elev 4140 ft 42.22 °N, 102.98 °W | Updated 11 minutes ago

Overcast
Overcast
43.5 °F
Feels Like 44 °F
N
0.0
Wind Variable Wind from North
Gusts 0.0 mph

Today
High -- | Low -- °F
--% Chance of Precip.
Yesterday
High -- | Low -- °F
Precip. -- in
Pressure 29.60 in
Visibility 10.0 miles
Clouds Mostly Cloudy 3800 ft
Mostly Cloudy 6000 ft
Windchill 44 °F
Dew Point 36 °F
Humidity 74%
Rainfall 0.00 in
Snow Depth Not available.
5:52 AM 7:47 PM
New Moon, 2% visible
METAR KAIA 271553Z AUTO 16010KT 10SM BKN038 BKN060 06/01 A2959 RMK AO2 SLP022 T00610006
Pressure 29.60 in
Visibility 10.0 miles
Clouds Mostly Cloudy 3800 ft
Mostly Cloudy 6000 ft
Windchill 44 °F
Dew Point 36 °F
Humidity 74%
Rainfall 0.00 in
Snow Depth Not available.
5:52 AM 7:47 PM
New Moon, 2% visible
METAR KAIA 271553Z AUTO 16010KT 10SM BKN038 BKN060 06/01 A2959 RMK AO2 SLP022 T00610006

Get Your Daily Forecast Email!

Thanks for signing up!

Be on the lookout for a verification email in your inbox.

You'll start receiving severe weather alerts in your inbox..

×

10-Day Weather Forecast

Almanac

Astronomy

Apr. 27, 2017 Rise Set
Actual Time
Civil Twilight
Nautical Twilight
Astronomical Twilight
Moon
Length of Visible Light
Length of Day
Tomorrow will be .
, % of the Moon is Illuminated

Today's Extremes

State Highs State Lows

Community

WunderPhotos

WunderBlog® & News

Nearby

Air Quality

  Air Quality AQ Index Pollutant
Not available.

Snow Depth

Station Depth Elevation

Earthquake Activity

City Distance Mag. Time & Date
Minimum magnitude displayed is 2.5.

Coastal Water Temperatures

Place Temperature

Stations

Nearby Weather Stations

Station Location Temp. Windchill Dew Point Humidity Wind Precip. Elev Updated Type
                   

Watches & Warnings

Winter Weather Advisory
Issued: 4:25 AM MDT Apr. 27, 2017 – National Weather Service

... Winter Weather Advisory in effect from 6 PM this evening to
6 PM MDT Friday...

The National Weather Service in Cheyenne has issued a Winter
Weather Advisory for snow, which is in effect from 6 PM this
evening to 6 PM MDT Friday.

* Timing... rain will change to snow this evening, with moderate
snow expected at times through Friday afternoon.

* Total snow accumulations... 4 to 6 inches.

* Winds/visibility... northeast winds 10 to 20 mph. Visibility will
be reduced to less than one mile in snow.

* Impacts... hazardous travel is possible due to snow covered roads
and low visibility. Heavy snow on fully leafed trees could cause
tree damage, with the possibility of tree branches falling onto
power lines and causing power outages.

Precautionary/preparedness actions...

A Winter Weather Advisory for snow means that periods of snow
will cause travel difficulties. Be prepared for snow covered
roads and limited visibilities... and use caution while driving.